Islip, NY (11751)

11:24 AM EST on November 24, 2014 (GMT -0500)
KNYISLIP2 | Change Station
CLOSE
Current Station
Personal Weather Station
Location: Islip, NY
Elevation: 11 ft
Nearby Weather Stations

Elev 11 ft 40.73 °N, 73.21 °W | Updated 9 seconds ago

Overcast
Overcast
57.2 °F
Feels Like 57.2 °F
N
10.3
Wind Variable Wind from South
Gusts 10.3 mph

Today
High -- | Low -- °F
--% Chance of Precip.
Yesterday
High -- | Low -- °F
Precip. -- in
6:50 AM 4:28 PM
Waxing Crescent, 6% visible
Pressure 29.69 in
Visibility 0.2 miles
Clouds Overcast 200 ft
Dew Point 57 °F
Humidity 98%
Rainfall 0.00 in
Snow Depth Not available.
UV 1 out of 12
Pollen .10 out of 12
Air Quality Not available.
Flu Activity Not available.
METAR KISP 241556Z COR 19015G27KT 1/4SM R06/3000VP6000FT FG SCT000 OVC002 16/15 A2969 RMK AO2 PK WND 20028/1520 SFC VIS 1/2 RAE17DZB17E55 SLP052 FG SCT000 P0001 T01610150

More Conditions Fewer Conditions

Pressure 29.69 in
Visibility 0.2 miles
Clouds Overcast 200 ft
Dew Point 57 °F
Humidity 98%
Rainfall 0.00 in
Snow Depth Not available.
UV 1 out of 12
Pollen .10 out of 12
Air Quality Not available.
Flu Activity Not available.
METAR KISP 241556Z COR 19015G27KT 1/4SM R06/3000VP6000FT FG SCT000 OVC002 16/15 A2969 RMK AO2 PK WND 20028/1520 SFC VIS 1/2 RAE17DZB17E55 SLP052 FG SCT000 P0001 T01610150

More Conditions Fewer Conditions

10-Day Weather Forecast

Almanac

Astronomy

Nov. 24, 2014 Rise Set
Actual Time
Civil Twilight
Nautical Twilight
Astronomical Twilight
Moon
Length of Visible Light
Length of Day
Tomorrow will be .
, % of the Moon is Illuminated

Today's Extremes

State Highs State Lows

Community

WunderPhotos

Upload Photos

1,773,364 photos uploaded!

WunderBlogs® & News

Nearby

Air Quality

  Air Quality AQ Index Pollutant
Not available.

Snow Depth

Station Depth Elevation

Earthquake Activity

City Distance Mag. Time & Date
Minimum magnitude displayed is 2.5.

Coastal Water Temperatures

Place Temperature

Nearby Weather Stations